sensor_id;sensor_type;location;lat;lon;timestamp;P1;durP1;ratioP1;P2;durP2;ratioP2
40162;SDS011;25881;47.462;19.304;2022-11-20T00:01:26;25.83;;;13.52;;
40162;SDS011;25881;47.462;19.304;2022-11-20T00:03:52;24.83;;;12.88;;
40162;SDS011;25881;47.462;19.304;2022-11-20T00:06:18;26.23;;;14.25;;
40162;SDS011;25881;47.462;19.304;2022-11-20T00:08:43;25.20;;;14.65;;
40162;SDS011;25881;47.462;19.304;2022-11-20T00:11:13;27.63;;;15.55;;
40162;SDS011;25881;47.462;19.304;2022-11-20T00:13:39;25.73;;;14.20;;
40162;SDS011;25881;47.462;19.304;2022-11-20T00:16:05;27.13;;;15.33;;
40162;SDS011;25881;47.462;19.304;2022-11-20T00:18:30;25.77;;;14.48;;
40162;SDS011;25881;47.462;19.304;2022-11-20T00:21:04;29.45;;;15.07;;
40162;SDS011;25881;47.462;19.304;2022-11-20T00:23:29;29.98;;;14.88;;
40162;SDS011;25881;47.462;19.304;2022-11-20T00:25:54;24.25;;;14.88;;
40162;SDS011;25881;47.462;19.304;2022-11-20T00:28:20;27.53;;;14.70;;
40162;SDS011;25881;47.462;19.304;2022-11-20T00:30:45;27.23;;;14.90;;
40162;SDS011;25881;47.462;19.304;2022-11-20T00:33:10;30.50;;;15.50;;
40162;SDS011;25881;47.462;19.304;2022-11-20T00:35:35;29.23;;;15.27;;
40162;SDS011;25881;47.462;19.304;2022-11-20T00:38:00;29.97;;;15.27;;
40162;SDS011;25881;47.462;19.304;2022-11-20T00:40:26;27.43;;;15.97;;
40162;SDS011;25881;47.462;19.304;2022-11-20T00:42:51;30.25;;;16.27;;
40162;SDS011;25881;47.462;19.304;2022-11-20T00:45:16;30.90;;;16.43;;
40162;SDS011;25881;47.462;19.304;2022-11-20T00:47:41;33.07;;;16.77;;
40162;SDS011;25881;47.462;19.304;2022-11-20T00:50:06;31.47;;;16.93;;
40162;SDS011;25881;47.462;19.304;2022-11-20T00:52:32;31.40;;;16.92;;
40162;SDS011;25881;47.462;19.304;2022-11-20T00:54:57;30.50;;;17.70;;
40162;SDS011;25881;47.462;19.304;2022-11-20T00:57:23;29.47;;;16.43;;
40162;SDS011;25881;47.462;19.304;2022-11-20T00:59:48;31.47;;;17.50;;
40162;SDS011;25881;47.462;19.304;2022-11-20T01:02:13;31.93;;;16.10;;
40162;SDS011;25881;47.462;19.304;2022-11-20T01:04:40;32.83;;;16.98;;
40162;SDS011;25881;47.462;19.304;2022-11-20T01:07:05;33.30;;;17.93;;
40162;SDS011;25881;47.462;19.304;2022-11-20T01:09:30;32.57;;;18.20;;
40162;SDS011;25881;47.462;19.304;2022-11-20T01:11:56;33.63;;;17.97;;
40162;SDS011;25881;47.462;19.304;2022-11-20T01:14:21;29.17;;;16.13;;
40162;SDS011;25881;47.462;19.304;2022-11-20T01:16:47;31.83;;;17.20;;
40162;SDS011;25881;47.462;19.304;2022-11-20T01:19:15;34.50;;;17.90;;
40162;SDS011;25881;47.462;19.304;2022-11-20T01:21:41;35.00;;;18.42;;
40162;SDS011;25881;47.462;19.304;2022-11-20T01:24:07;37.20;;;19.65;;
40162;SDS011;25881;47.462;19.304;2022-11-20T01:26:33;39.13;;;18.92;;
40162;SDS011;25881;47.462;19.304;2022-11-20T01:28:59;36.90;;;19.42;;
40162;SDS011;25881;47.462;19.304;2022-11-20T01:31:29;43.28;;;19.10;;
40162;SDS011;25881;47.462;19.304;2022-11-20T01:33:56;38.15;;;19.15;;
40162;SDS011;25881;47.462;19.304;2022-11-20T01:36:22;37.25;;;19.38;;
40162;SDS011;25881;47.462;19.304;2022-11-20T01:38:47;40.13;;;20.80;;
40162;SDS011;25881;47.462;19.304;2022-11-20T01:41:13;45.60;;;22.70;;
40162;SDS011;25881;47.462;19.304;2022-11-20T01:43:59;43.08;;;21.13;;
40162;SDS011;25881;47.462;19.304;2022-11-20T01:46:25;42.17;;;19.48;;
40162;SDS011;25881;47.462;19.304;2022-11-20T01:48:51;44.67;;;21.83;;
40162;SDS011;25881;47.462;19.304;2022-11-20T01:51:21;43.53;;;21.38;;
40162;SDS011;25881;47.462;19.304;2022-11-20T01:53:46;45.13;;;21.70;;
40162;SDS011;25881;47.462;19.304;2022-11-20T01:56:12;46.83;;;21.92;;
40162;SDS011;25881;47.462;19.304;2022-11-20T01:58:39;53.45;;;24.75;;
40162;SDS011;25881;47.462;19.304;2022-11-20T02:03:32;51.45;;;23.15;;
40162;SDS011;25881;47.462;19.304;2022-11-20T02:08:28;53.53;;;24.42;;
40162;SDS011;25881;47.462;19.304;2022-11-20T02:10:54;52.17;;;26.10;;
40162;SDS011;25881;47.462;19.304;2022-11-20T02:13:19;56.30;;;27.47;;
40162;SDS011;25881;47.462;19.304;2022-11-20T02:16:03;57.05;;;25.40;;
40162;SDS011;25881;47.462;19.304;2022-11-20T02:18:28;50.63;;;25.23;;
40162;SDS011;25881;47.462;19.304;2022-11-20T02:21:19;55.05;;;24.00;;
40162;SDS011;25881;47.462;19.304;2022-11-20T02:24:02;59.67;;;27.50;;
40162;SDS011;25881;47.462;19.304;2022-11-20T02:26:26;51.10;;;24.75;;
40162;SDS011;25881;47.462;19.304;2022-11-20T02:28:52;50.28;;;25.35;;
40162;SDS011;25881;47.462;19.304;2022-11-20T02:31:18;53.53;;;26.13;;
40162;SDS011;25881;47.462;19.304;2022-11-20T02:33:43;59.53;;;27.27;;
40162;SDS011;25881;47.462;19.304;2022-11-20T02:36:09;54.73;;;26.33;;
40162;SDS011;25881;47.462;19.304;2022-11-20T02:38:36;53.13;;;24.75;;
40162;SDS011;25881;47.462;19.304;2022-11-20T02:41:01;54.73;;;25.63;;
40162;SDS011;25881;47.462;19.304;2022-11-20T02:43:27;53.70;;;24.57;;
40162;SDS011;25881;47.462;19.304;2022-11-20T02:45:52;52.07;;;24.40;;
40162;SDS011;25881;47.462;19.304;2022-11-20T02:48:17;48.77;;;24.63;;
40162;SDS011;25881;47.462;19.304;2022-11-20T02:50:42;60.53;;;26.50;;
40162;SDS011;25881;47.462;19.304;2022-11-20T02:53:07;48.33;;;25.07;;
40162;SDS011;25881;47.462;19.304;2022-11-20T02:55:33;49.38;;;25.30;;
40162;SDS011;25881;47.462;19.304;2022-11-20T02:57:58;50.60;;;26.02;;
40162;SDS011;25881;47.462;19.304;2022-11-20T03:00:23;58.33;;;26.60;;
40162;SDS011;25881;47.462;19.304;2022-11-20T03:02:48;56.00;;;25.37;;
40162;SDS011;25881;47.462;19.304;2022-11-20T03:05:14;54.50;;;27.27;;
40162;SDS011;25881;47.462;19.304;2022-11-20T03:07:39;51.90;;;24.47;;
40162;SDS011;25881;47.462;19.304;2022-11-20T03:10:04;48.80;;;23.73;;
40162;SDS011;25881;47.462;19.304;2022-11-20T03:12:30;52.35;;;25.52;;
40162;SDS011;25881;47.462;19.304;2022-11-20T03:14:55;50.93;;;25.77;;
40162;SDS011;25881;47.462;19.304;2022-11-20T03:17:20;53.13;;;25.57;;
40162;SDS011;25881;47.462;19.304;2022-11-20T03:19:45;46.03;;;22.33;;
40162;SDS011;25881;47.462;19.304;2022-11-20T03:22:10;50.23;;;24.00;;
40162;SDS011;25881;47.462;19.304;2022-11-20T03:24:36;50.47;;;23.80;;
40162;SDS011;25881;47.462;19.304;2022-11-20T03:27:01;48.20;;;24.07;;
40162;SDS011;25881;47.462;19.304;2022-11-20T03:29:26;50.50;;;24.88;;
40162;SDS011;25881;47.462;19.304;2022-11-20T03:31:51;53.67;;;26.60;;
40162;SDS011;25881;47.462;19.304;2022-11-20T03:34:16;47.70;;;23.13;;
40162;SDS011;25881;47.462;19.304;2022-11-20T03:36:42;48.03;;;23.10;;
40162;SDS011;25881;47.462;19.304;2022-11-20T03:39:07;49.05;;;23.38;;
40162;SDS011;25881;47.462;19.304;2022-11-20T03:41:35;47.20;;;23.52;;
40162;SDS011;25881;47.462;19.304;2022-11-20T03:44:02;50.15;;;24.50;;
40162;SDS011;25881;47.462;19.304;2022-11-20T03:46:28;49.05;;;25.75;;
40162;SDS011;25881;47.462;19.304;2022-11-20T03:48:53;46.80;;;23.70;;
40162;SDS011;25881;47.462;19.304;2022-11-20T03:51:20;47.75;;;23.45;;
40162;SDS011;25881;47.462;19.304;2022-11-20T03:53:46;46.50;;;24.00;;
40162;SDS011;25881;47.462;19.304;2022-11-20T03:56:11;46.47;;;22.65;;
40162;SDS011;25881;47.462;19.304;2022-11-20T03:58:38;52.75;;;24.10;;
40162;SDS011;25881;47.462;19.304;2022-11-20T04:01:08;48.10;;;23.67;;
40162;SDS011;25881;47.462;19.304;2022-11-20T04:03:34;45.80;;;22.85;;
40162;SDS011;25881;47.462;19.304;2022-11-20T04:06:03;49.92;;;24.40;;
40162;SDS011;25881;47.462;19.304;2022-11-20T04:08:29;47.47;;;23.10;;
40162;SDS011;25881;47.462;19.304;2022-11-20T04:10:54;50.22;;;25.40;;
40162;SDS011;25881;47.462;19.304;2022-11-20T04:13:19;46.03;;;24.00;;
40162;SDS011;25881;47.462;19.304;2022-11-20T04:15:44;46.60;;;23.70;;
40162;SDS011;25881;47.462;19.304;2022-11-20T04:18:10;50.20;;;24.03;;
40162;SDS011;25881;47.462;19.304;2022-11-20T04:20:35;49.00;;;24.30;;
40162;SDS011;25881;47.462;19.304;2022-11-20T04:23:00;48.60;;;23.70;;
40162;SDS011;25881;47.462;19.304;2022-11-20T04:25:25;45.47;;;22.20;;
40162;SDS011;25881;47.462;19.304;2022-11-20T04:27:50;52.53;;;25.53;;
40162;SDS011;25881;47.462;19.304;2022-11-20T04:30:16;44.70;;;22.13;;
40162;SDS011;25881;47.462;19.304;2022-11-20T04:32:41;46.70;;;23.20;;
40162;SDS011;25881;47.462;19.304;2022-11-20T04:35:06;44.87;;;21.77;;
40162;SDS011;25881;47.462;19.304;2022-11-20T04:37:31;41.10;;;21.88;;
40162;SDS011;25881;47.462;19.304;2022-11-20T04:39:56;45.93;;;22.87;;
40162;SDS011;25881;47.462;19.304;2022-11-20T04:42:22;46.57;;;23.30;;
40162;SDS011;25881;47.462;19.304;2022-11-20T04:44:53;44.92;;;22.02;;
40162;SDS011;25881;47.462;19.304;2022-11-20T04:47:18;45.33;;;22.00;;
40162;SDS011;25881;47.462;19.304;2022-11-20T04:49:43;43.25;;;21.25;;
40162;SDS011;25881;47.462;19.304;2022-11-20T04:52:09;43.97;;;23.40;;
40162;SDS011;25881;47.462;19.304;2022-11-20T04:54:34;53.23;;;23.73;;
40162;SDS011;25881;47.462;19.304;2022-11-20T04:56:59;42.90;;;21.03;;
40162;SDS011;25881;47.462;19.304;2022-11-20T04:59:24;43.23;;;21.10;;
40162;SDS011;25881;47.462;19.304;2022-11-20T05:01:49;41.60;;;21.00;;
40162;SDS011;25881;47.462;19.304;2022-11-20T05:04:14;47.97;;;23.10;;
40162;SDS011;25881;47.462;19.304;2022-11-20T05:06:40;43.13;;;22.27;;
40162;SDS011;25881;47.462;19.304;2022-11-20T05:09:05;41.38;;;22.23;;
40162;SDS011;25881;47.462;19.304;2022-11-20T05:11:31;45.10;;;21.53;;
40162;SDS011;25881;47.462;19.304;2022-11-20T05:13:57;45.38;;;23.02;;
40162;SDS011;25881;47.462;19.304;2022-11-20T05:16:23;39.47;;;21.38;;
40162;SDS011;25881;47.462;19.304;2022-11-20T05:18:49;44.85;;;22.80;;
40162;SDS011;25881;47.462;19.304;2022-11-20T05:21:15;42.63;;;22.65;;
40162;SDS011;25881;47.462;19.304;2022-11-20T05:23:41;43.97;;;22.48;;
40162;SDS011;25881;47.462;19.304;2022-11-20T05:26:07;46.92;;;23.35;;
40162;SDS011;25881;47.462;19.304;2022-11-20T05:28:33;46.25;;;22.75;;
40162;SDS011;25881;47.462;19.304;2022-11-20T05:31:08;40.78;;;22.00;;
40162;SDS011;25881;47.462;19.304;2022-11-20T05:33:34;49.67;;;23.20;;
40162;SDS011;25881;47.462;19.304;2022-11-20T05:36:00;47.47;;;24.80;;
40162;SDS011;25881;47.462;19.304;2022-11-20T05:38:25;53.55;;;27.27;;
40162;SDS011;25881;47.462;19.304;2022-11-20T05:40:50;49.57;;;23.87;;
40162;SDS011;25881;47.462;19.304;2022-11-20T05:43:16;47.23;;;23.67;;
40162;SDS011;25881;47.462;19.304;2022-11-20T05:45:41;50.23;;;25.57;;
40162;SDS011;25881;47.462;19.304;2022-11-20T05:48:06;50.33;;;25.17;;
40162;SDS011;25881;47.462;19.304;2022-11-20T05:50:31;57.57;;;27.60;;
40162;SDS011;25881;47.462;19.304;2022-11-20T05:53:00;59.33;;;27.67;;
40162;SDS011;25881;47.462;19.304;2022-11-20T05:55:25;55.85;;;27.05;;
40162;SDS011;25881;47.462;19.304;2022-11-20T05:57:52;59.80;;;29.02;;
40162;SDS011;25881;47.462;19.304;2022-11-20T06:00:17;61.72;;;29.80;;
40162;SDS011;25881;47.462;19.304;2022-11-20T06:02:42;53.50;;;25.30;;
40162;SDS011;25881;47.462;19.304;2022-11-20T06:05:07;51.47;;;25.77;;
40162;SDS011;25881;47.462;19.304;2022-11-20T06:07:33;51.60;;;25.80;;
40162;SDS011;25881;47.462;19.304;2022-11-20T06:09:58;55.70;;;28.13;;
40162;SDS011;25881;47.462;19.304;2022-11-20T06:12:23;54.67;;;25.80;;
40162;SDS011;25881;47.462;19.304;2022-11-20T06:14:48;54.87;;;26.47;;
40162;SDS011;25881;47.462;19.304;2022-11-20T06:17:13;55.00;;;26.87;;
40162;SDS011;25881;47.462;19.304;2022-11-20T06:19:39;50.13;;;26.00;;
40162;SDS011;25881;47.462;19.304;2022-11-20T06:22:04;51.63;;;26.70;;
40162;SDS011;25881;47.462;19.304;2022-11-20T06:24:29;51.53;;;25.07;;
40162;SDS011;25881;47.462;19.304;2022-11-20T06:26:54;53.77;;;26.50;;
40162;SDS011;25881;47.462;19.304;2022-11-20T06:29:19;50.40;;;24.93;;
40162;SDS011;25881;47.462;19.304;2022-11-20T06:31:45;52.00;;;26.87;;
40162;SDS011;25881;47.462;19.304;2022-11-20T06:34:10;55.53;;;26.97;;
40162;SDS011;25881;47.462;19.304;2022-11-20T06:36:35;55.13;;;27.53;;
40162;SDS011;25881;47.462;19.304;2022-11-20T06:39:01;49.57;;;25.87;;
40162;SDS011;25881;47.462;19.304;2022-11-20T06:41:26;56.65;;;27.55;;
40162;SDS011;25881;47.462;19.304;2022-11-20T06:43:52;57.15;;;27.33;;
40162;SDS011;25881;47.462;19.304;2022-11-20T06:46:18;55.53;;;26.00;;
40162;SDS011;25881;47.462;19.304;2022-11-20T06:48:44;51.67;;;26.42;;
40162;SDS011;25881;47.462;19.304;2022-11-20T06:51:10;54.47;;;26.80;;
40162;SDS011;25881;47.462;19.304;2022-11-20T06:53:35;54.43;;;28.23;;
40162;SDS011;25881;47.462;19.304;2022-11-20T06:56:01;53.40;;;27.35;;
40162;SDS011;25881;47.462;19.304;2022-11-20T06:58:26;54.87;;;27.27;;
40162;SDS011;25881;47.462;19.304;2022-11-20T07:00:52;49.67;;;26.35;;
40162;SDS011;25881;47.462;19.304;2022-11-20T07:03:17;50.30;;;24.80;;
40162;SDS011;25881;47.462;19.304;2022-11-20T07:05:43;52.37;;;27.43;;
40162;SDS011;25881;47.462;19.304;2022-11-20T07:08:08;49.83;;;26.48;;
40162;SDS011;25881;47.462;19.304;2022-11-20T07:10:34;52.87;;;25.93;;
40162;SDS011;25881;47.462;19.304;2022-11-20T07:12:59;53.00;;;26.65;;
40162;SDS011;25881;47.462;19.304;2022-11-20T07:15:24;50.47;;;26.60;;
40162;SDS011;25881;47.462;19.304;2022-11-20T07:17:50;54.28;;;27.05;;
40162;SDS011;25881;47.462;19.304;2022-11-20T07:20:15;49.63;;;25.70;;
40162;SDS011;25881;47.462;19.304;2022-11-20T07:22:41;58.35;;;28.00;;
40162;SDS011;25881;47.462;19.304;2022-11-20T07:25:07;52.10;;;27.40;;
40162;SDS011;25881;47.462;19.304;2022-11-20T07:27:32;52.85;;;26.42;;
40162;SDS011;25881;47.462;19.304;2022-11-20T07:29:57;59.00;;;29.30;;
40162;SDS011;25881;47.462;19.304;2022-11-20T07:32:23;50.47;;;26.67;;
40162;SDS011;25881;47.462;19.304;2022-11-20T07:34:48;55.83;;;28.92;;
40162;SDS011;25881;47.462;19.304;2022-11-20T07:37:13;50.80;;;28.33;;
40162;SDS011;25881;47.462;19.304;2022-11-20T07:39:39;51.40;;;27.83;;
40162;SDS011;25881;47.462;19.304;2022-11-20T07:42:04;60.77;;;29.17;;
40162;SDS011;25881;47.462;19.304;2022-11-20T07:44:30;52.58;;;28.20;;
40162;SDS011;25881;47.462;19.304;2022-11-20T07:46:55;58.10;;;27.13;;
40162;SDS011;25881;47.462;19.304;2022-11-20T07:49:20;53.50;;;26.23;;
40162;SDS011;25881;47.462;19.304;2022-11-20T07:51:46;52.33;;;27.00;;
40162;SDS011;25881;47.462;19.304;2022-11-20T07:54:11;53.37;;;26.80;;
40162;SDS011;25881;47.462;19.304;2022-11-20T07:56:36;53.63;;;28.53;;
40162;SDS011;25881;47.462;19.304;2022-11-20T07:59:01;55.53;;;28.17;;
40162;SDS011;25881;47.462;19.304;2022-11-20T08:01:28;51.13;;;26.13;;
40162;SDS011;25881;47.462;19.304;2022-11-20T08:03:53;55.73;;;27.23;;
40162;SDS011;25881;47.462;19.304;2022-11-20T08:06:18;54.70;;;27.03;;
40162;SDS011;25881;47.462;19.304;2022-11-20T08:08:44;54.53;;;27.27;;
40162;SDS011;25881;47.462;19.304;2022-11-20T08:11:10;48.97;;;26.47;;
40162;SDS011;25881;47.462;19.304;2022-11-20T08:13:53;49.33;;;25.60;;
40162;SDS011;25881;47.462;19.304;2022-11-20T08:16:40;47.70;;;24.20;;
40162;SDS011;25881;47.462;19.304;2022-11-20T08:19:06;51.55;;;25.77;;
40162;SDS011;25881;47.462;19.304;2022-11-20T08:21:31;48.80;;;26.50;;
40162;SDS011;25881;47.462;19.304;2022-11-20T08:23:57;48.17;;;24.23;;
40162;SDS011;25881;47.462;19.304;2022-11-20T08:26:23;51.60;;;25.65;;
40162;SDS011;25881;47.462;19.304;2022-11-20T08:28:48;52.47;;;25.42;;
40162;SDS011;25881;47.462;19.304;2022-11-20T08:31:13;47.33;;;24.63;;
40162;SDS011;25881;47.462;19.304;2022-11-20T08:33:39;50.23;;;25.47;;
40162;SDS011;25881;47.462;19.304;2022-11-20T08:36:04;46.13;;;25.03;;
40162;SDS011;25881;47.462;19.304;2022-11-20T08:38:30;49.15;;;27.02;;
40162;SDS011;25881;47.462;19.304;2022-11-20T08:41:00;45.15;;;25.77;;
40162;SDS011;25881;47.462;19.304;2022-11-20T08:43:43;49.97;;;24.15;;
40162;SDS011;25881;47.462;19.304;2022-11-20T08:46:09;46.10;;;23.93;;
40162;SDS011;25881;47.462;19.304;2022-11-20T08:48:34;51.23;;;25.43;;
40162;SDS011;25881;47.462;19.304;2022-11-20T08:50:59;53.90;;;26.83;;
40162;SDS011;25881;47.462;19.304;2022-11-20T08:53:24;50.33;;;25.50;;
40162;SDS011;25881;47.462;19.304;2022-11-20T08:55:50;56.00;;;26.52;;
40162;SDS011;25881;47.462;19.304;2022-11-20T08:58:15;57.77;;;29.00;;
40162;SDS011;25881;47.462;19.304;2022-11-20T09:00:40;48.80;;;26.60;;
40162;SDS011;25881;47.462;19.304;2022-11-20T09:03:05;49.93;;;28.50;;
40162;SDS011;25881;47.462;19.304;2022-11-20T09:05:30;46.33;;;25.57;;
40162;SDS011;25881;47.462;19.304;2022-11-20T09:07:56;51.13;;;27.93;;
40162;SDS011;25881;47.462;19.304;2022-11-20T09:10:21;46.22;;;24.67;;
40162;SDS011;25881;47.462;19.304;2022-11-20T09:12:49;44.83;;;23.98;;
40162;SDS011;25881;47.462;19.304;2022-11-20T09:15:16;41.10;;;23.10;;
40162;SDS011;25881;47.462;19.304;2022-11-20T09:17:41;45.57;;;25.53;;
40162;SDS011;25881;47.462;19.304;2022-11-20T09:20:07;45.17;;;24.67;;
40162;SDS011;25881;47.462;19.304;2022-11-20T09:22:32;42.60;;;23.00;;
40162;SDS011;25881;47.462;19.304;2022-11-20T09:24:57;54.38;;;29.95;;
40162;SDS011;25881;47.462;19.304;2022-11-20T09:27:23;46.93;;;24.37;;
40162;SDS011;25881;47.462;19.304;2022-11-20T09:29:48;47.47;;;25.65;;
40162;SDS011;25881;47.462;19.304;2022-11-20T09:32:13;44.30;;;23.37;;
40162;SDS011;25881;47.462;19.304;2022-11-20T09:34:38;74.93;;;37.67;;
40162;SDS011;25881;47.462;19.304;2022-11-20T09:37:03;55.70;;;30.03;;
40162;SDS011;25881;47.462;19.304;2022-11-20T09:39:29;66.60;;;35.07;;
40162;SDS011;25881;47.462;19.304;2022-11-20T09:50:06;55.75;;;28.88;;
40162;SDS011;25881;47.462;19.304;2022-11-20T09:55:08;56.50;;;30.20;;
40162;SDS011;25881;47.462;19.304;2022-11-20T09:57:35;43.03;;;25.27;;
40162;SDS011;25881;47.462;19.304;2022-11-20T10:00:02;41.50;;;22.90;;
40162;SDS011;25881;47.462;19.304;2022-11-20T10:03:16;39.03;;;21.10;;
40162;SDS011;25881;47.462;19.304;2022-11-20T10:05:23;41.00;;;22.75;;
40162;SDS011;25881;47.462;19.304;2022-11-20T10:10:36;37.47;;;21.10;;
40162;SDS011;25881;47.462;19.304;2022-11-20T10:13:20;40.67;;;21.67;;
40162;SDS011;25881;47.462;19.304;2022-11-20T10:21:00;43.38;;;22.50;;
40162;SDS011;25881;47.462;19.304;2022-11-20T10:28:56;43.42;;;24.65;;
40162;SDS011;25881;47.462;19.304;2022-11-20T10:31:28;43.58;;;23.83;;
40162;SDS011;25881;47.462;19.304;2022-11-20T10:33:55;43.15;;;24.58;;
40162;SDS011;25881;47.462;19.304;2022-11-20T10:36:33;48.00;;;25.70;;
40162;SDS011;25881;47.462;19.304;2022-11-20T10:39:35;48.60;;;26.70;;
40162;SDS011;25881;47.462;19.304;2022-11-20T10:41:51;49.88;;;27.70;;
40162;SDS011;25881;47.462;19.304;2022-11-20T10:44:19;50.85;;;28.10;;
40162;SDS011;25881;47.462;19.304;2022-11-20T10:47:20;48.05;;;27.35;;
40162;SDS011;25881;47.462;19.304;2022-11-20T10:49:51;43.85;;;23.58;;
40162;SDS011;25881;47.462;19.304;2022-11-20T10:54:58;45.83;;;25.13;;
40162;SDS011;25881;47.462;19.304;2022-11-20T11:02:39;42.25;;;22.27;;
40162;SDS011;25881;47.462;19.304;2022-11-20T11:07:53;38.92;;;21.67;;
40162;SDS011;25881;47.462;19.304;2022-11-20T11:10:24;36.85;;;20.85;;
40162;SDS011;25881;47.462;19.304;2022-11-20T11:12:49;38.17;;;20.67;;
40162;SDS011;25881;47.462;19.304;2022-11-20T11:15:37;38.43;;;21.40;;
40162;SDS011;25881;47.462;19.304;2022-11-20T11:18:00;36.38;;;18.60;;
40162;SDS011;25881;47.462;19.304;2022-11-20T11:20:25;35.10;;;20.73;;
40162;SDS011;25881;47.462;19.304;2022-11-20T11:25:55;42.20;;;22.23;;
40162;SDS011;25881;47.462;19.304;2022-11-20T11:30:42;40.85;;;21.33;;
40162;SDS011;25881;47.462;19.304;2022-11-20T11:33:11;36.42;;;19.55;;
40162;SDS011;25881;47.462;19.304;2022-11-20T11:35:44;39.10;;;20.73;;
40162;SDS011;25881;47.462;19.304;2022-11-20T11:38:14;38.22;;;20.58;;
40162;SDS011;25881;47.462;19.304;2022-11-20T11:40:40;37.58;;;22.17;;
40162;SDS011;25881;47.462;19.304;2022-11-20T11:43:06;38.47;;;21.85;;
40162;SDS011;25881;47.462;19.304;2022-11-20T11:45:52;38.25;;;21.65;;
40162;SDS011;25881;47.462;19.304;2022-11-20T11:48:18;40.42;;;22.45;;
40162;SDS011;25881;47.462;19.304;2022-11-20T11:50:47;40.90;;;23.02;;
40162;SDS011;25881;47.462;19.304;2022-11-20T11:53:14;39.78;;;22.83;;
40162;SDS011;25881;47.462;19.304;2022-11-20T11:58:51;36.90;;;21.50;;
40162;SDS011;25881;47.462;19.304;2022-11-20T12:01:16;40.55;;;21.80;;
40162;SDS011;25881;47.462;19.304;2022-11-20T12:03:44;39.08;;;21.52;;
40162;SDS011;25881;47.462;19.304;2022-11-20T12:06:16;40.63;;;23.75;;
40162;SDS011;25881;47.462;19.304;2022-11-20T12:13:39;45.72;;;26.45;;
40162;SDS011;25881;47.462;19.304;2022-11-20T12:16:08;44.90;;;23.70;;
40162;SDS011;25881;47.462;19.304;2022-11-20T12:18:36;47.00;;;25.35;;
40162;SDS011;25881;47.462;19.304;2022-11-20T12:29:06;43.38;;;24.90;;
40162;SDS011;25881;47.462;19.304;2022-11-20T12:39:30;46.92;;;24.77;;
40162;SDS011;25881;47.462;19.304;2022-11-20T12:42:02;46.58;;;26.20;;
40162;SDS011;25881;47.462;19.304;2022-11-20T12:55:11;53.72;;;27.65;;
40162;SDS011;25881;47.462;19.304;2022-11-20T13:05:16;48.13;;;26.80;;
40162;SDS011;25881;47.462;19.304;2022-11-20T13:07:43;48.58;;;26.20;;
40162;SDS011;25881;47.462;19.304;2022-11-20T13:12:46;51.10;;;25.05;;
40162;SDS011;25881;47.462;19.304;2022-11-20T13:17:56;53.92;;;30.40;;
40162;SDS011;25881;47.462;19.304;2022-11-20T13:20:22;50.15;;;28.13;;
40162;SDS011;25881;47.462;19.304;2022-11-20T13:22:51;53.22;;;29.77;;
40162;SDS011;25881;47.462;19.304;2022-11-20T13:25:33;52.95;;;29.10;;
40162;SDS011;25881;47.462;19.304;2022-11-20T13:27:59;50.33;;;28.98;;
40162;SDS011;25881;47.462;19.304;2022-11-20T13:30:26;50.22;;;28.98;;
40162;SDS011;25881;47.462;19.304;2022-11-20T13:32:54;50.25;;;27.35;;
40162;SDS011;25881;47.462;19.304;2022-11-20T13:35:24;49.28;;;29.02;;
40162;SDS011;25881;47.462;19.304;2022-11-20T13:37:58;50.58;;;28.55;;
40162;SDS011;25881;47.462;19.304;2022-11-20T13:40:24;54.08;;;30.63;;
40162;SDS011;25881;47.462;19.304;2022-11-20T13:45:28;49.57;;;26.30;;
40162;SDS011;25881;47.462;19.304;2022-11-20T13:47:54;57.05;;;29.75;;
40162;SDS011;25881;47.462;19.304;2022-11-20T13:50:21;54.15;;;29.40;;
40162;SDS011;25881;47.462;19.304;2022-11-20T13:52:56;51.08;;;29.75;;
40162;SDS011;25881;47.462;19.304;2022-11-20T13:55:26;49.70;;;29.35;;
40162;SDS011;25881;47.462;19.304;2022-11-20T14:00:57;54.70;;;29.13;;
40162;SDS011;25881;47.462;19.304;2022-11-20T14:03:23;54.53;;;29.38;;
40162;SDS011;25881;47.462;19.304;2022-11-20T14:05:50;56.75;;;30.88;;
40162;SDS011;25881;47.462;19.304;2022-11-20T14:08:26;52.03;;;29.33;;
40162;SDS011;25881;47.462;19.304;2022-11-20T14:11:02;59.08;;;31.50;;
40162;SDS011;25881;47.462;19.304;2022-11-20T14:13:27;61.70;;;32.65;;
40162;SDS011;25881;47.462;19.304;2022-11-20T14:15:56;65.57;;;34.37;;
40162;SDS011;25881;47.462;19.304;2022-11-20T14:18:21;62.72;;;33.90;;
40162;SDS011;25881;47.462;19.304;2022-11-20T14:20:47;64.20;;;33.90;;
40162;SDS011;25881;47.462;19.304;2022-11-20T14:23:12;60.45;;;33.85;;
40162;SDS011;25881;47.462;19.304;2022-11-20T14:25:41;65.43;;;36.00;;
40162;SDS011;25881;47.462;19.304;2022-11-20T14:28:10;66.78;;;35.45;;
40162;SDS011;25881;47.462;19.304;2022-11-20T14:30:42;61.78;;;35.63;;
40162;SDS011;25881;47.462;19.304;2022-11-20T14:33:09;67.43;;;35.00;;
40162;SDS011;25881;47.462;19.304;2022-11-20T14:35:37;64.68;;;34.92;;
40162;SDS011;25881;47.462;19.304;2022-11-20T14:38:08;67.43;;;35.33;;
40162;SDS011;25881;47.462;19.304;2022-11-20T14:40:34;65.93;;;37.00;;
40162;SDS011;25881;47.462;19.304;2022-11-20T14:43:19;63.30;;;35.17;;
40162;SDS011;25881;47.462;19.304;2022-11-20T14:45:46;67.60;;;37.65;;
40162;SDS011;25881;47.462;19.304;2022-11-20T14:48:13;74.75;;;38.88;;
40162;SDS011;25881;47.462;19.304;2022-11-20T14:50:40;76.82;;;38.72;;
40162;SDS011;25881;47.462;19.304;2022-11-20T14:53:05;80.72;;;40.53;;
40162;SDS011;25881;47.462;19.304;2022-11-20T14:55:33;78.20;;;38.50;;
40162;SDS011;25881;47.462;19.304;2022-11-20T14:58:00;70.18;;;38.15;;
40162;SDS011;25881;47.462;19.304;2022-11-20T15:00:26;68.97;;;36.40;;
40162;SDS011;25881;47.462;19.304;2022-11-20T15:02:51;67.80;;;36.83;;
40162;SDS011;25881;47.462;19.304;2022-11-20T15:05:21;70.10;;;36.75;;
40162;SDS011;25881;47.462;19.304;2022-11-20T15:07:47;67.30;;;34.90;;
40162;SDS011;25881;47.462;19.304;2022-11-20T15:12:40;72.13;;;37.10;;
40162;SDS011;25881;47.462;19.304;2022-11-20T15:15:06;73.07;;;40.47;;
40162;SDS011;25881;47.462;19.304;2022-11-20T15:17:35;75.00;;;39.30;;
40162;SDS011;25881;47.462;19.304;2022-11-20T15:20:02;83.93;;;40.97;;
40162;SDS011;25881;47.462;19.304;2022-11-20T15:22:30;84.93;;;42.70;;
40162;SDS011;25881;47.462;19.304;2022-11-20T15:24:56;77.17;;;42.10;;
40162;SDS011;25881;47.462;19.304;2022-11-20T15:27:21;87.30;;;45.80;;
40162;SDS011;25881;47.462;19.304;2022-11-20T15:29:46;87.13;;;47.87;;
40162;SDS011;25881;47.462;19.304;2022-11-20T15:32:11;88.13;;;46.47;;
40162;SDS011;25881;47.462;19.304;2022-11-20T15:34:37;93.70;;;48.30;;
40162;SDS011;25881;47.462;19.304;2022-11-20T15:37:02;91.53;;;47.23;;
40162;SDS011;25881;47.462;19.304;2022-11-20T15:39:27;90.97;;;46.60;;
40162;SDS011;25881;47.462;19.304;2022-11-20T15:41:52;90.30;;;48.63;;
40162;SDS011;25881;47.462;19.304;2022-11-20T15:44:17;132.67;;;68.67;;
40162;SDS011;25881;47.462;19.304;2022-11-20T15:46:43;121.28;;;68.85;;
40162;SDS011;25881;47.462;19.304;2022-11-20T15:49:13;129.73;;;71.57;;